NCAR-RAP Real-Time Weather Data

Output produced by METARs form (08 May 2021  17:23 UTC)
found at http://weather.rap.ucar.edu/surface/
 
KGSO 081654Z 30016G22KT 10SM BKN080 21/05 A2998 RMK AO2 SLP148 T02060050
KGSO 081554Z 27011KT 10SM BKN070 BKN090 18/04 A3000 RMK AO2 SLP154 T01780044
KGSO 081454Z 27014KT 10SM SCT050 18/06 A3000 RMK AO2 SLP156 T01780056 58003
KGSO 081354Z 30013G19KT 10SM FEW045 FEW090 17/05 A3000 RMK AO2 SLP156 T01670050
KGSO 081254Z 28008KT 10SM FEW065 SCT090 13/04 A3001 RMK AO2 SLP161 T01330044
KGSO 081154Z 28004KT 10SM BKN070 BKN090 10/04 A3001 RMK AO2 RAE03 SLP160 P0000 60000 T01000044 10100 20056 53015
KGSO 081054Z 30003KT 10SM -RA SCT070 BKN085 BKN100 08/04 A3000 RMK AO2 RAB49 SLP156 P0000 T00830039
KGSO 080954Z 21007KT 10SM SCT085 BKN100 BKN120 09/03 A2997 RMK AO2 SLP146 T00890033
KGSO 080854Z 26007KT 10SM OVC100 09/02 A2997 RMK AO2 SLP144 T00940022 55002
KGSO 080754Z 23005KT 10SM BKN110 BKN140 08/02 A2996 RMK AO2 SLP142 T00780022
KGSO 080654Z 21005KT 10SM SCT100 06/02 A2996 RMK AO2 SLP144 T00610022
KGSO 080554Z 21006KT 10SM CLR 07/02 A2997 RMK AO2 SLP148 T00720022 10156 20061 58004
KGSO 080454Z 00000KT 10SM CLR 09/01 A2998 RMK AO2 SLP149 T00940011 401940089
KGSO 080354Z 00000KT 10SM CLR 10/00 A2998 RMK AO2 SLP150 T01000000
KGSO 080254Z 30005KT 10SM CLR 10/00 A2999 RMK AO2 SLP151 T01000000 53019
KGSO 080154Z 31006KT 10SM CLR 11/00 A2996 RMK AO2 SLP144 T01110000
KGSO 080054Z 31005KT 10SM FEW090 11/00 A2994 RMK AO2 SLP136 T01110000
KGSO 072354Z 32008KT 10SM FEW090 16/M02 A2993 RMK AO2 SLP131 T01561022 10194 20150 53017
KGSO 072254Z 32016G22KT 10SM CLR 17/M03 A2990 RMK AO2 SLP123 T01721028
KGSO 072154Z 30017G21KT 10SM SCT070 18/M02 A2989 RMK AO2 PK WND 31026/2057 SLP118 T01781017
KGSO 072054Z 30022G25KT 10SM SCT070 BKN095 18/M01 A2988 RMK AO2 PK WND 30030/2035 SLP113 T01831011 55008
KGSO 071954Z 31016G22KT 10SM BKN065 BKN090 18/02 A2987 RMK AO2 PK WND 29028/1900 SLP110 TCU DSNT E T01830017
KGSO 071854Z 29018G25KT 10SM SCT055 SCT090 18/03 A2989 RMK AO2 PK WND 30027/1824 SLP115 CB DSNT E T01780033
KGSO 071754Z 30011G24KT 10SM BKN045 BKN065 BKN250 15/04 A2990 RMK AO2 PK WND 30026/1733 RAE03 SLP122 CB DSNT SE AND NW P0000 60000 T01500044 10172 20111 58002
KGSO 071654Z 32014G23KT 10SM -RA FEW039 SCT046 BKN055 BKN250 15/07 A2991 RMK AO2 SLP126 CB DSNT E AND SW P0000 T01500067
KGSO 071554Z 31011KT 10SM -RA FEW025 BKN060 OVC085 14/07 A2992 RMK AO2 RAB1456E03B47 SLP129 CB DSNT NE-SE P0000 T01390072
KGSO 071454Z 32008KT 10SM FEW015 BKN070 OVC090 14/08 A2991 RMK AO2 RAB25E54 SLP124 P0000 60000 T01390083 51008
KGSO 071354Z 27004KT 10SM FEW010 BKN080 BKN100 OVC250 13/10 A2990 RMK AO2 SLP121 T01280100
KGSO 071254Z 28003KT 10SM FEW020 BKN070 OVC090 12/10 A2989 RMK AO2 SLP118 T01220100
KGSO 071154Z 31005KT 10SM FEW030 BKN080 BKN130 11/10 A2988 RMK AO2 SLP115 60002 70002 T01110100 10128 20111 55000
KGSO 071054Z 00000KT 10SM SCT080 BKN100 BKN130 11/10 A2987 RMK AO2 SLP109 T01110100
KGSO 070954Z 00000KT 10SM SCT065 BKN120 11/10 A2987 RMK AO2 RAB0857E27 SLP110 P0002 T01110100
KGSO 070854Z 25005KT 10SM BKN070 OVC180 12/09 A2988 RMK AO2 SLP113 T01170094 55013
KGSO 070754Z 00000KT 10SM SCT090 BKN130 BKN250 12/09 A2987 RMK AO2 SLP110 T01220094
KGSO 070654Z 24004KT 10SM SCT065 BKN180 BKN240 12/09 A2990 RMK AO2 SLP121 T01170094
KGSO 070554Z 21004KT 10SM SCT070 BKN100 13/09 A2992 RMK AO2 RAB38E47 SLP127 P0000 60000 T01280094 10172 20122 56010
KGSO 070454Z 15006KT 10SM FEW050 BKN150 BKN250 13/09 A2993 RMK AO2 SLP130 T01280089 402060094
KGSO 070354Z 00000KT 10SM FEW050 13/07 A2994 RMK AO2 SLP134 T01330072
KGSO 070254Z 15004KT 10SM CLR 13/07 A2995 RMK AO2 SLP139 T01330072 50004
KGSO 070154Z 12004KT 10SM FEW065 14/07 A2996 RMK AO2 SLP140 T01390067
KGSO 070054Z 17003KT 10SM FEW065 16/05 A2995 RMK AO2 SLP137 T01610050
KGSO 062354Z 22003KT 10SM FEW065 17/03 A2994 RMK AO2 SLP133 T01720033 10206 20172 55002
KGSO 062254Z VRB05KT 10SM FEW065 19/03 A2993 RMK AO2 SLP131 T01890033
KGSO 062154Z 00000KT 10SM SCT065 18/03 A2994 RMK AO2 SLP133 T01780033
KGSO 062054Z 35005KT 10SM SCT065 SCT250 20/04 A2995 RMK AO2 SLP136 T02000044 56021
KGSO 061954Z VRB03KT 10SM SCT060 BKN250 18/03 A2996 RMK AO2 SLP141 T01830033
KGSO 061854Z VRB04KT 10SM SCT060 SCT250 18/04 A2998 RMK AO2 SLP146 T01780039
KGSO 061754Z VRB04KT 10SM SCT055 SCT250 17/04 A3001 RMK AO2 SLP158 T01720044 10178 20122 58018